Time;durP1;ratioP1;P1;durP2;ratioP2;P2;SDS_P1;SDS_P2;PMS_P1;PMS_P2;Temp;Humidity;BMP_temperature;BMP_pressure;BME280_temperature;BME280_humidity;BME280_pressure;Samples;Min_cycle;Max_cycle;Signal;HPM_P1;HPM_P2
2024/03/28 00:01:07;;;;;;;29.73;7.32;;;;;;;-145.63;100.00;61273.97;5125100;28;20448;-63
2024/03/28 00:03:34;;;;;;;28.20;7.35;;;;;;;-145.63;100.00;61273.97;5115874;28;20054;-64
2024/03/28 00:06:01;;;;;;;28.42;7.40;;;;;;;-145.63;100.00;61273.97;5132195;28;20050;-65
2024/03/28 00:08:28;;;;;;;30.42;7.00;;;;;;;-145.63;100.00;61273.97;5132162;28;20042;-64
2024/03/28 00:10:54;;;;;;;23.65;6.47;;;;;;;-145.63;100.00;61273.97;5117007;28;20028;-64
2024/03/28 00:13:21;;;;;;;38.47;7.22;;;;;;;-145.63;100.00;61273.97;5122126;28;20031;-64
2024/03/28 00:16:05;;;;;;;26.33;7.38;;;;;;;-145.63;100.00;61273.97;5126514;28;20547;-64
2024/03/28 00:18:31;;;;;;;27.13;7.43;;;;;;;-145.63;100.00;61273.97;5118347;27;20075;-62
2024/03/28 00:20:58;;;;;;;31.60;7.65;;;;;;;-145.63;100.00;61273.97;5136024;27;20023;-64
2024/03/28 00:23:24;;;;;;;25.45;6.15;;;;;;;-145.63;100.00;61273.97;5136411;27;20039;-64
2024/03/28 00:25:54;;;;;;;27.98;7.13;;;;;;;-145.63;100.00;61273.97;5122011;27;20084;-65
2024/03/28 00:28:20;;;;;;;36.47;7.40;;;;;;;-145.63;100.00;61273.97;5125222;27;20134;-63
2024/03/28 00:30:47;;;;;;;29.40;6.85;;;;;;;-145.63;100.00;61273.97;5131242;27;20032;-63
2024/03/28 00:33:14;;;;;;;25.08;7.00;;;;;;;-145.63;100.00;61273.97;5097290;28;20027;-62
2024/03/28 00:35:44;;;;;;;23.60;6.65;;;;;;;-145.63;100.00;61273.97;5115744;28;20039;-63
2024/03/28 00:38:09;;;;;;;24.27;7.35;;;;;;;-145.63;100.00;61273.97;5132580;27;20035;-67
2024/03/28 00:40:37;;;;;;;27.75;7.28;;;;;;;-145.63;100.00;61273.97;5136275;27;20024;-63
2024/03/28 00:43:03;;;;;;;29.42;6.07;;;;;;;-145.63;100.00;61273.97;5135515;27;20031;-64
2024/03/28 00:45:29;;;;;;;28.42;7.20;;;;;;;-145.63;100.00;61273.97;5133265;27;20036;-63
2024/03/28 00:47:55;;;;;;;28.90;7.15;;;;;;;-145.63;100.00;61273.97;5096819;28;20043;-64
2024/03/28 00:50:21;;;;;;;23.67;7.18;;;;;;;-145.63;100.00;61273.97;5128644;27;20036;-63
2024/03/28 00:52:46;;;;;;;33.30;8.02;;;;;;;-145.63;100.00;61273.97;5129246;27;20027;-64
2024/03/28 00:55:12;;;;;;;24.13;7.60;;;;;;;-145.63;100.00;61273.97;5126865;27;20027;-64
2024/03/28 00:57:39;;;;;;;26.70;8.90;;;;;;;-145.63;100.00;61273.97;5120651;27;20422;-64
2024/03/28 01:00:06;;;;;;;31.10;7.93;;;;;;;-145.63;100.00;61273.97;5115026;28;20376;-63
2024/03/28 01:02:31;;;;;;;23.15;7.20;;;;;;;-145.63;100.00;61273.97;5115127;27;20039;-63
2024/03/28 01:04:57;;;;;;;21.83;7.50;;;;;;;-145.63;100.00;61273.97;5130034;27;20410;-64
2024/03/28 01:07:23;;;;;;;30.42;7.18;;;;;;;-145.63;100.00;61273.97;5136247;27;20435;-62
2024/03/28 01:09:48;;;;;;;25.77;7.95;;;;;;;-145.63;100.00;61273.97;5129953;27;20143;-63
2024/03/28 01:12:14;;;;;;;25.13;7.55;;;;;;;-145.63;100.00;61273.97;5115463;27;20035;-63
2024/03/28 01:14:40;;;;;;;26.80;6.95;;;;;;;-145.63;100.00;61273.97;5135541;27;20031;-68
2024/03/28 01:17:05;;;;;;;24.90;7.05;;;;;;;-145.63;100.00;61273.97;5118912;27;20045;-66
2024/03/28 01:19:31;;;;;;;28.40;7.22;;;;;;;-145.63;100.00;61273.97;5126679;27;20455;-65
2024/03/28 01:21:57;;;;;;;26.63;7.35;;;;;;;-145.63;100.00;61273.97;5129236;27;20043;-66
2024/03/28 01:24:23;;;;;;;30.02;7.47;;;;;;;-145.63;100.00;61273.97;5116108;27;20047;-68
2024/03/28 01:26:49;;;;;;;26.15;7.05;;;;;;;-145.63;100.00;61273.97;5135535;27;20039;-67
2024/03/28 01:29:14;;;;;;;24.90;7.70;;;;;;;-145.63;100.00;61273.97;5117793;27;20036;-67
2024/03/28 01:31:40;;;;;;;27.48;6.90;;;;;;;-145.63;100.00;61273.97;5108729;27;20039;-65
2024/03/28 01:34:05;;;;;;;25.52;7.75;;;;;;;-145.63;100.00;61273.97;5127185;27;20040;-65
2024/03/28 01:36:31;;;;;;;27.73;7.10;;;;;;;-145.63;100.00;61273.97;5117324;27;20073;-63
2024/03/28 01:38:57;;;;;;;25.55;7.00;;;;;;;-145.63;100.00;61273.97;5134931;27;20584;-63
2024/03/28 01:41:22;;;;;;;15.43;6.57;;;;;;;-145.63;100.00;61273.97;5116637;27;20039;-63
2024/03/28 01:43:48;;;;;;;20.38;6.75;;;;;;;-145.63;100.00;61273.97;5128120;27;20383;-62
2024/03/28 01:46:17;;;;;;;19.77;6.28;;;;;;;-145.63;100.00;61273.97;5125241;27;20034;-63
2024/03/28 01:48:44;;;;;;;24.85;6.15;;;;;;;-145.63;100.00;61273.97;5114462;28;20028;-63
2024/03/28 01:51:10;;;;;;;22.80;6.95;;;;;;;-145.63;100.00;61273.97;5113783;28;20024;-63
2024/03/28 01:53:36;;;;;;;18.23;6.88;;;;;;;-145.63;100.00;61273.97;5134358;27;20035;-62
2024/03/28 01:56:04;;;;;;;27.48;6.50;;;;;;;-145.63;100.00;61273.97;5119011;27;20520;-62
2024/03/28 01:58:31;;;;;;;20.75;7.15;;;;;;;-145.63;100.00;61273.97;5124265;27;20031;-63
2024/03/28 02:00:57;;;;;;;21.05;6.43;;;;;;;-145.63;100.00;61273.97;5109062;28;20442;-63
2024/03/28 02:03:22;;;;;;;22.38;6.43;;;;;;;-145.63;100.00;61273.97;5113907;28;20114;-65
2024/03/28 02:05:50;;;;;;;24.08;6.95;;;;;;;-145.63;100.00;61273.97;5113614;28;20028;-64
2024/03/28 02:08:16;;;;;;;24.55;6.43;;;;;;;-145.63;100.00;61273.97;5131198;27;20035;-63
2024/03/28 02:10:41;;;;;;;26.38;6.10;;;;;;;-145.63;100.00;61273.97;5115818;27;20033;-63
2024/03/28 02:13:08;;;;;;;25.70;6.53;;;;;;;-145.63;100.00;61273.97;5126467;27;20111;-68
2024/03/28 02:15:34;;;;;;;22.42;6.97;;;;;;;-145.63;100.00;61273.97;5116607;27;20035;-64
2024/03/28 02:17:59;;;;;;;19.55;6.20;;;;;;;-145.63;100.00;61273.97;5134139;27;20172;-64
2024/03/28 02:20:26;;;;;;;29.15;6.93;;;;;;;-145.63;100.00;61273.97;5115159;27;20024;-64
2024/03/28 02:22:51;;;;;;;20.95;6.53;;;;;;;-145.63;100.00;61273.97;5127178;27;20099;-62
2024/03/28 02:25:17;;;;;;;19.10;6.55;;;;;;;-145.63;100.00;61273.97;5125015;27;20461;-64
2024/03/28 02:27:43;;;;;;;17.70;6.53;;;;;;;-145.63;100.00;61273.97;5113044;28;20043;-63
2024/03/28 02:30:13;;;;;;;27.77;11.35;;;;;;;-145.63;100.00;61273.97;5112829;28;20038;-64
2024/03/28 02:32:39;;;;;;;19.98;7.38;;;;;;;-145.63;100.00;61273.97;5133631;27;20471;-63
2024/03/28 02:35:07;;;;;;;27.58;7.57;;;;;;;-145.63;100.00;61273.97;5118085;27;20123;-65
2024/03/28 02:37:32;;;;;;;32.13;7.03;;;;;;;-145.63;100.00;61273.97;5124175;27;20431;-63
2024/03/28 02:39:58;;;;;;;20.67;7.03;;;;;;;-145.63;100.00;61273.97;5112441;28;20024;-63
2024/03/28 02:42:24;;;;;;;25.42;7.15;;;;;;;-145.63;100.00;61273.97;5113962;27;20503;-63
2024/03/28 02:44:50;;;;;;;18.13;7.68;;;;;;;-145.63;100.00;61273.97;5133837;27;20063;-63
2024/03/28 02:47:15;;;;;;;26.73;7.75;;;;;;;-145.63;100.00;61273.97;5116130;27;20058;-63
2024/03/28 02:49:41;;;;;;;29.95;7.53;;;;;;;-145.63;100.00;61273.97;5113118;28;20027;-63
2024/03/28 02:52:07;;;;;;;19.90;7.03;;;;;;;-145.63;100.00;61273.97;5125299;27;20161;-64
2024/03/28 02:54:32;;;;;;;22.80;8.30;;;;;;;-145.63;100.00;61273.97;5114527;27;20078;-63
2024/03/28 02:57:03;;;;;;;25.20;8.00;;;;;;;-145.63;100.00;61273.97;5133474;27;20023;-63
2024/03/28 02:59:29;;;;;;;27.05;8.07;;;;;;;-145.63;100.00;61273.97;5096662;28;20071;-63
2024/03/28 03:01:55;;;;;;;21.58;8.55;;;;;;;-145.63;100.00;61273.97;5112390;28;20024;-64
2024/03/28 03:04:21;;;;;;;33.67;7.78;;;;;;;-145.63;100.00;61273.97;5103010;27;20505;-63
2024/03/28 03:06:47;;;;;;;31.25;7.40;;;;;;;-145.63;100.00;61273.97;5129058;27;20023;-64
2024/03/28 03:09:12;;;;;;;24.08;7.97;;;;;;;-145.63;100.00;61273.97;5112417;28;20038;-64
2024/03/28 03:11:38;;;;;;;25.58;7.13;;;;;;;-145.63;100.00;61273.97;5132518;27;20062;-63
2024/03/28 03:14:04;;;;;;;29.80;7.90;;;;;;;-145.63;100.00;61273.97;5117872;27;20455;-63
2024/03/28 03:16:29;;;;;;;23.52;7.45;;;;;;;-145.63;100.00;61273.97;5122377;27;20501;-63
2024/03/28 03:18:55;;;;;;;24.50;7.72;;;;;;;-145.63;100.00;61273.97;5127877;27;20024;-63
2024/03/28 03:21:21;;;;;;;22.15;8.35;;;;;;;-145.63;100.00;61273.97;5112699;28;20493;-64
2024/03/28 03:23:49;;;;;;;22.60;7.85;;;;;;;-145.63;100.00;61273.97;5133025;27;20130;-64
2024/03/28 03:26:24;;;;;;;24.30;8.15;;;;;;;-145.63;100.00;61273.97;5116013;27;20039;-64
2024/03/28 03:34:39;;;;;;;18.58;7.45;;;;;;;-145.63;100.00;61273.97;5120263;27;20031;-63
2024/03/28 03:37:25;;;;;;;26.73;7.07;;;;;;;-145.63;100.00;61273.97;5125681;27;20080;-63
2024/03/28 03:39:54;;;;;;;24.52;8.88;;;;;;;-145.63;100.00;61273.97;5112084;28;20042;-63
2024/03/28 03:42:20;;;;;;;27.48;7.80;;;;;;;-145.63;100.00;61273.97;5111865;28;20039;-64
2024/03/28 03:44:46;;;;;;;20.98;7.80;;;;;;;-145.63;100.00;61273.97;5111871;28;20469;-64
2024/03/28 03:47:12;;;;;;;21.48;7.63;;;;;;;-145.63;100.00;61273.97;5127897;27;20046;-63
2024/03/28 03:49:43;;;;;;;18.83;7.55;;;;;;;-145.63;100.00;61273.97;5121300;27;20027;-63
2024/03/28 03:52:18;;;;;;;25.40;8.50;;;;;;;-145.63;100.00;61273.97;5110673;28;20035;-63
2024/03/28 03:54:44;;;;;;;26.73;8.10;;;;;;;-145.63;100.00;61273.97;5115273;28;20035;-64
2024/03/28 03:57:10;;;;;;;24.73;8.68;;;;;;;-145.63;100.00;61273.97;5132204;28;20102;-64
2024/03/28 03:59:39;;;;;;;32.35;9.60;;;;;;;-145.63;100.00;61273.97;5123046;28;20043;-63
2024/03/28 04:02:06;;;;;;;28.95;9.50;;;;;;;-145.63;100.00;61273.97;5096902;28;20027;-63
2024/03/28 04:04:32;;;;;;;29.75;9.95;;;;;;;-145.63;100.00;61273.97;5121525;28;20531;-62
2024/03/28 04:06:58;;;;;;;31.38;9.15;;;;;;;-145.63;100.00;61273.97;5132400;28;20080;-64
2024/03/28 04:09:24;;;;;;;31.08;9.70;;;;;;;-145.63;100.00;61273.97;5132119;28;20062;-64
2024/03/28 04:11:50;;;;;;;24.23;10.10;;;;;;;-145.63;100.00;61273.97;5112121;28;20034;-63
2024/03/28 04:14:16;;;;;;;33.50;10.13;;;;;;;-145.63;100.00;61273.97;5127377;28;20463;-62
2024/03/28 04:16:42;;;;;;;25.50;9.73;;;;;;;-145.63;100.00;61273.97;5120984;28;20130;-62
2024/03/28 04:19:08;;;;;;;26.23;9.55;;;;;;;-145.63;100.00;61273.97;5118068;28;20035;-63
2024/03/28 04:21:34;;;;;;;25.80;9.88;;;;;;;-145.63;100.00;61273.97;5130378;28;20629;-63
2024/03/28 04:24:04;;;;;;;27.02;9.77;;;;;;;-145.63;100.00;61273.97;5111442;28;20047;-62
2024/03/28 04:26:30;;;;;;;27.45;9.63;;;;;;;-145.63;100.00;61273.97;5111169;28;20055;-63
2024/03/28 04:28:56;;;;;;;36.47;11.85;;;;;;;-145.63;100.00;61273.97;5124631;28;20172;-63
2024/03/28 04:31:22;;;;;;;25.45;10.50;;;;;;;-145.63;100.00;61273.97;5123447;28;20156;-63
2024/03/28 04:33:48;;;;;;;31.15;10.95;;;;;;;-145.63;100.00;61273.97;5111529;28;20490;-63
2024/03/28 04:36:14;;;;;;;37.63;11.48;;;;;;;-145.63;100.00;61273.97;5111359;28;20036;-62
2024/03/28 04:38:42;;;;;;;34.38;10.93;;;;;;;-145.63;100.00;61273.97;5130636;28;20084;-63
2024/03/28 04:41:09;;;;;;;36.47;11.60;;;;;;;-145.63;100.00;61273.97;5117077;28;20028;-62
2024/03/28 04:43:35;;;;;;;41.50;12.45;;;;;;;-145.63;100.00;61273.97;5121691;28;20345;-63
2024/03/28 04:46:01;;;;;;;41.38;12.48;;;;;;;-145.63;100.00;61273.97;5126151;28;20035;-63
2024/03/28 04:48:27;;;;;;;36.38;13.27;;;;;;;-145.63;100.00;61273.97;5111427;28;20027;-62
2024/03/28 04:50:52;;;;;;;39.75;13.80;;;;;;;-145.63;100.00;61273.97;5111131;28;20792;-64
2024/03/28 04:53:18;;;;;;;36.90;12.63;;;;;;;-145.63;100.00;61273.97;5126782;28;20046;-63
2024/03/28 04:55:43;;;;;;;40.80;13.40;;;;;;;-145.63;100.00;61273.97;5120862;28;20734;-64
2024/03/28 04:58:09;;;;;;;29.35;12.95;;;;;;;-145.63;100.00;61273.97;5117187;28;20084;-63
2024/03/28 05:00:36;;;;;;;33.35;12.55;;;;;;;-145.63;100.00;61273.97;5131416;28;20363;-65
2024/03/28 05:03:02;;;;;;;35.58;13.55;;;;;;;-145.63;100.00;61273.97;5132380;27;20027;-64
2024/03/28 05:05:28;;;;;;;31.17;12.43;;;;;;;-145.63;100.00;61273.97;5135412;27;20059;-62
2024/03/28 05:07:54;;;;;;;39.35;15.07;;;;;;;-145.63;100.00;61273.97;5122849;27;20020;-64
2024/03/28 05:10:19;;;;;;;44.75;13.45;;;;;;;-145.63;100.00;61273.97;5122200;27;20439;-64
2024/03/28 05:12:45;;;;;;;50.72;14.20;;;;;;;-145.63;100.00;61273.97;5135513;27;20114;-65
2024/03/28 05:15:11;;;;;;;51.05;15.43;;;;;;;-145.63;100.00;61273.97;5116908;27;20050;-64
2024/03/28 05:17:37;;;;;;;44.80;14.63;;;;;;;-145.63;100.00;61273.97;5116937;27;20027;-64
2024/03/28 05:20:04;;;;;;;37.92;11.75;;;;;;;-145.63;100.00;61273.97;5128090;27;20023;-64
2024/03/28 05:22:30;;;;;;;48.95;12.90;;;;;;;-145.63;100.00;61273.97;5134875;27;20059;-64
2024/03/28 05:24:56;;;;;;;37.90;12.20;;;;;;;-145.63;100.00;61273.97;5131855;27;20463;-64
2024/03/28 05:27:22;;;;;;;29.73;11.55;;;;;;;-145.63;100.00;61273.97;5114333;28;20032;-65
2024/03/28 05:29:48;;;;;;;25.90;11.20;;;;;;;-145.63;100.00;61273.97;5134336;27;20045;-65
2024/03/28 05:32:14;;;;;;;34.50;11.57;;;;;;;-145.63;100.00;61273.97;5119866;27;20019;-64
2024/03/28 05:34:41;;;;;;;34.60;11.63;;;;;;;-145.63;100.00;61273.97;5114130;28;20105;-65
2024/03/28 05:37:08;;;;;;;22.85;9.60;;;;;;;-145.63;100.00;61273.97;5114668;28;20035;-65
2024/03/28 05:39:33;;;;;;;33.28;10.23;;;;;;;-145.63;100.00;61273.97;5095792;28;20032;-64
2024/03/28 05:41:59;;;;;;;29.02;10.20;;;;;;;-145.63;100.00;61273.97;5113754;28;20479;-64
2024/03/28 05:44:25;;;;;;;27.17;8.68;;;;;;;-145.63;100.00;61273.97;5130547;27;20076;-66
2024/03/28 05:46:50;;;;;;;30.13;8.32;;;;;;;-145.63;100.00;61273.97;5123220;27;20027;-64
2024/03/28 05:49:16;;;;;;;25.85;9.20;;;;;;;-145.63;100.00;61273.97;5120567;27;20436;-65
2024/03/28 05:51:42;;;;;;;26.42;8.27;;;;;;;-145.63;100.00;61273.97;5120325;27;20027;-64
2024/03/28 05:54:07;;;;;;;27.63;7.20;;;;;;;-145.63;100.00;61273.97;5134248;27;20023;-66
2024/03/28 05:56:34;;;;;;;31.58;8.30;;;;;;;-145.63;100.00;61273.97;5116995;27;20110;-67
2024/03/28 05:58:59;;;;;;;28.45;7.97;;;;;;;-145.63;100.00;61273.97;5125935;27;20030;-68
2024/03/28 06:01:25;;;;;;;18.40;7.35;;;;;;;-145.63;100.00;61273.97;5118948;27;20134;-66
2024/03/28 06:03:51;;;;;;;29.65;9.40;;;;;;;-145.63;100.00;61273.97;5116350;27;20039;-66
2024/03/28 06:06:17;;;;;;;26.60;8.40;;;;;;;-145.63;100.00;61273.97;5134093;27;20460;-65
2024/03/28 06:08:43;;;;;;;20.10;8.15;;;;;;;-145.63;100.00;61273.97;5115236;27;20059;-66
2024/03/28 06:11:09;;;;;;;23.83;8.35;;;;;;;-145.63;100.00;61273.97;5123648;27;20468;-66
2024/03/28 06:13:34;;;;;;;31.38;9.00;;;;;;;-145.63;100.00;61273.97;5125697;27;20024;-66
2024/03/28 06:16:01;;;;;;;33.95;10.13;;;;;;;-145.63;100.00;61273.97;5119969;27;20040;-66
2024/03/28 06:18:27;;;;;;;23.50;8.82;;;;;;;-145.63;100.00;61273.97;5123977;27;20460;-66
2024/03/28 06:21:05;;;;;;;28.35;9.95;;;;;;;-145.63;100.00;61273.97;5132926;27;20110;-67
2024/03/28 06:23:32;;;;;;;35.35;10.65;;;;;;;-145.63;100.00;61273.97;5129806;27;20727;-67
2024/03/28 06:26:04;;;;;;;44.10;21.50;;;;;;;-145.63;100.00;61273.97;5121931;27;20092;-66
2024/03/28 06:28:30;;;;;;;;;;;;;;;-145.63;100.00;61273.97;5121173;27;20039;-66
2024/03/28 06:30:56;;;;;;;28.73;10.98;;;;;;;-145.63;100.00;61273.97;5128131;27;19915;-67
2024/03/28 06:33:23;;;;;;;25.75;10.07;;;;;;;-145.63;100.00;61273.97;5133757;27;20455;-66
2024/03/28 06:35:49;;;;;;;32.00;9.50;;;;;;;-145.63;100.00;61273.97;5114487;27;20027;-67
2024/03/28 06:38:15;;;;;;;22.52;8.55;;;;;;;-145.63;100.00;61273.97;5112387;28;20035;-66
2024/03/28 06:40:40;;;;;;;29.52;9.65;;;;;;;-145.63;100.00;61273.97;5113027;28;20028;-67
2024/03/28 06:43:06;;;;;;;19.27;8.27;;;;;;;-145.63;100.00;61273.97;5117305;27;20404;-65
2024/03/28 06:45:32;;;;;;;26.85;8.98;;;;;;;-145.63;100.00;61273.97;5114483;27;20031;-66
2024/03/28 06:47:58;;;;;;;24.33;8.52;;;;;;;-145.63;100.00;61273.97;5113073;28;20019;-67
2024/03/28 06:50:25;;;;;;;20.75;8.23;;;;;;;-145.63;100.00;61273.97;5124740;27;20371;-67
2024/03/28 06:52:53;;;;;;;21.05;8.13;;;;;;;-145.63;100.00;61273.97;5124180;27;20027;-68
2024/03/28 06:55:19;;;;;;;19.15;7.93;;;;;;;-145.63;100.00;61273.97;5127087;27;20128;-66
2024/03/28 06:57:45;;;;;;;18.27;7.00;;;;;;;-145.63;100.00;61273.97;5128496;27;20027;-66
2024/03/28 07:00:12;;;;;;;19.50;6.97;;;;;;;-145.63;100.00;61273.97;5129389;27;20042;-67
2024/03/28 07:02:37;;;;;;;25.23;8.02;;;;;;;-145.63;100.00;61273.97;5124630;27;20033;-67
2024/03/28 07:05:04;;;;;;;15.23;6.65;;;;;;;-145.63;100.00;61273.97;5118230;27;20059;-66
2024/03/28 07:07:30;;;;;;;17.95;6.82;;;;;;;-145.63;100.00;61273.97;5118414;27;20035;-66
2024/03/28 07:09:56;;;;;;;16.05;5.80;;;;;;;-145.63;100.00;61273.97;5130158;27;20038;-68
2024/03/28 07:12:22;;;;;;;7.65;4.40;;;;;;;-145.63;100.00;61273.97;5129523;27;20054;-66
2024/03/28 07:14:48;;;;;;;16.25;6.28;;;;;;;-145.63;100.00;61273.97;5132225;27;20027;-66
2024/03/28 07:17:13;;;;;;;17.95;5.80;;;;;;;-145.63;100.00;61273.97;5122490;27;20108;-66
2024/03/28 07:19:40;;;;;;;17.23;5.88;;;;;;;-145.63;100.00;61273.97;5119692;27;20038;-67
2024/03/28 07:22:08;;;;;;;12.70;4.72;;;;;;;-145.63;100.00;61273.97;5115377;27;20452;-67
2024/03/28 07:24:36;;;;;;;8.10;4.40;;;;;;;-145.63;100.00;61273.97;5119884;27;20078;-66
2024/03/28 07:27:02;;;;;;;12.85;5.28;;;;;;;-145.63;100.00;61273.97;5112159;28;20027;-67
2024/03/28 07:29:28;;;;;;;11.23;5.07;;;;;;;-145.63;100.00;61273.97;5127232;27;20031;-67
2024/03/28 07:31:54;;;;;;;14.00;5.82;;;;;;;-145.63;100.00;61273.97;5129103;27;20102;-65
2024/03/28 07:34:20;;;;;;;18.08;5.97;;;;;;;-145.63;100.00;61273.97;5131464;27;20027;-67
2024/03/28 07:36:45;;;;;;;11.65;4.57;;;;;;;-145.63;100.00;61273.97;5131306;27;20027;-66
2024/03/28 07:39:13;;;;;;;14.13;5.40;;;;;;;-145.63;100.00;61273.97;5126778;27;20058;-65
2024/03/28 07:41:40;;;;;;;17.70;5.68;;;;;;;-145.63;100.00;61273.97;5127098;27;20031;-66
2024/03/28 07:44:05;;;;;;;11.35;5.63;;;;;;;-145.63;100.00;61273.97;5122813;27;20039;-65
2024/03/28 07:46:31;;;;;;;13.55;5.75;;;;;;;-145.63;100.00;61273.97;5119370;27;20035;-66
2024/03/28 07:48:57;;;;;;;17.33;5.45;;;;;;;-145.63;100.00;61273.97;5123719;27;20081;-67
2024/03/28 07:51:22;;;;;;;15.30;5.60;;;;;;;-145.63;100.00;61273.97;5111907;28;20051;-66
2024/03/28 07:53:48;;;;;;;12.45;5.65;;;;;;;-145.63;100.00;61273.97;5111824;28;20381;-66
2024/03/28 07:56:13;;;;;;;15.93;5.85;;;;;;;-145.63;100.00;61273.97;5118129;27;20031;-67
2024/03/28 07:58:39;;;;;;;12.18;5.63;;;;;;;-145.63;100.00;61273.97;5085044;28;20106;-66
2024/03/28 08:01:08;;;;;;;10.07;5.03;;;;;;;-145.63;100.00;61273.97;5124275;27;20054;-67
2024/03/28 08:03:35;;;;;;;10.80;5.13;;;;;;;-145.63;100.00;61273.97;5127334;27;20356;-66
2024/03/28 08:06:01;;;;;;;9.30;4.63;;;;;;;-145.63;100.00;61273.97;5122501;28;20035;-67
2024/03/28 08:08:27;;;;;;;11.13;5.40;;;;;;;-145.63;100.00;61273.97;5116434;28;20482;-66
2024/03/28 08:10:54;;;;;;;18.00;4.80;;;;;;;-145.63;100.00;61273.97;5111177;28;20113;-66
2024/03/28 08:13:19;;;;;;;17.42;4.90;;;;;;;-145.63;100.00;61273.97;5098543;28;21115;-65
2024/03/28 08:15:45;;;;;;;11.38;4.95;;;;;;;-145.63;100.00;61273.97;5131327;28;20023;-65
2024/03/28 08:18:11;;;;;;;12.15;5.50;;;;;;;-145.63;100.00;61273.97;5125999;28;20432;-65
2024/03/28 08:20:36;;;;;;;10.10;5.13;;;;;;;-145.63;100.00;61273.97;5114430;28;20035;-66
2024/03/28 08:23:02;;;;;;;11.70;4.65;;;;;;;-145.63;100.00;61273.97;5122548;28;20379;-65
2024/03/28 08:25:28;;;;;;;10.50;5.43;;;;;;;-145.63;100.00;61273.97;5124933;28;20111;-66
2024/03/28 08:27:53;;;;;;;15.63;5.40;;;;;;;-145.63;100.00;61273.97;5113725;28;20088;-66
2024/03/28 08:30:19;;;;;;;13.25;5.30;;;;;;;-145.63;100.00;61273.97;5130210;28;20043;-66
2024/03/28 08:32:45;;;;;;;11.50;4.50;;;;;;;-145.63;100.00;61273.97;5132003;28;20103;-67
2024/03/28 08:35:11;;;;;;;11.50;4.43;;;;;;;-145.63;100.00;61273.97;5118555;28;20035;-66
2024/03/28 08:37:39;;;;;;;11.82;4.88;;;;;;;-145.63;100.00;61273.97;5119074;27;20490;-65
2024/03/28 08:40:09;;;;;;;7.80;3.92;;;;;;;-145.63;100.00;61273.97;5132299;27;20116;-66
2024/03/28 08:42:36;;;;;;;10.90;4.60;;;;;;;-145.63;100.00;61273.97;5115210;28;20038;-65
2024/03/28 08:45:02;;;;;;;12.82;4.60;;;;;;;-145.63;100.00;61273.97;5135143;27;20080;-65
2024/03/28 08:47:29;;;;;;;12.68;4.65;;;;;;;-145.63;100.00;61273.97;5120588;27;20223;-64
2024/03/28 08:49:55;;;;;;;11.07;4.38;;;;;;;-145.63;100.00;61273.97;5116086;27;20038;-65
2024/03/28 08:52:20;;;;;;;9.77;3.97;;;;;;;-145.63;100.00;61273.97;5115017;28;20040;-66
2024/03/28 08:54:46;;;;;;;10.02;3.90;;;;;;;-145.63;100.00;61273.97;5114906;28;20456;-65
2024/03/28 08:57:12;;;;;;;11.63;4.40;;;;;;;-145.63;100.00;61273.97;5114491;28;20122;-66
2024/03/28 08:59:39;;;;;;;12.23;4.35;;;;;;;-145.63;100.00;61273.97;5131396;27;20102;-67
2024/03/28 09:02:07;;;;;;;8.20;4.18;;;;;;;-145.63;100.00;61273.97;5118950;27;20031;-66
2024/03/28 09:04:33;;;;;;;8.02;4.03;;;;;;;-145.63;100.00;61273.97;5121374;27;20033;-65
2024/03/28 09:06:59;;;;;;;12.48;5.20;;;;;;;-145.63;100.00;61273.97;5132807;27;20386;-65
2024/03/28 09:09:24;;;;;;;11.38;4.68;;;;;;;-145.63;100.00;61273.97;5114775;28;20040;-67
2024/03/28 09:11:50;;;;;;;10.35;4.40;;;;;;;-145.63;100.00;61273.97;5114544;28;20103;-66
2024/03/28 09:14:16;;;;;;;8.75;4.50;;;;;;;-145.63;100.00;61273.97;5127675;27;20057;-68
2024/03/28 09:16:42;;;;;;;5.97;4.13;;;;;;;-145.63;100.00;61273.97;5127131;27;20033;-67
2024/03/28 09:19:08;;;;;;;7.78;4.13;;;;;;;-145.63;100.00;61273.97;5116311;27;20153;-66
2024/03/28 09:21:34;;;;;;;12.88;4.32;;;;;;;-145.63;100.00;61273.97;5122791;27;20098;-65
2024/03/28 09:24:00;;;;;;;12.18;4.93;;;;;;;-145.63;100.00;61273.97;5114838;28;20403;-67
2024/03/28 09:26:25;;;;;;;13.63;5.20;;;;;;;-145.63;100.00;61273.97;5114320;28;20054;-65
2024/03/28 09:28:58;;;;;;;10.80;4.53;;;;;;;-145.63;100.00;61273.97;5124683;27;20027;-66
2024/03/28 09:31:24;;;;;;;7.60;4.50;;;;;;;-145.63;100.00;61273.97;5124387;27;20030;-67
2024/03/28 09:33:50;;;;;;;16.70;4.75;;;;;;;-145.63;100.00;61273.97;5122090;27;20396;-66
2024/03/28 09:36:16;;;;;;;9.43;4.68;;;;;;;-145.63;100.00;61273.97;5132314;27;20034;-65
2024/03/28 09:38:50;;;;;;;12.07;4.60;;;;;;;-145.63;100.00;61273.97;5131018;27;20040;-66
2024/03/28 09:41:28;;;;;;;11.52;4.95;;;;;;;-145.63;100.00;61273.97;5128224;27;20034;-65
2024/03/28 09:44:04;;;;;;;15.52;4.97;;;;;;;-145.63;100.00;61273.97;5134317;27;20045;-67
2024/03/28 09:46:31;;;;;;;10.25;4.50;;;;;;;-145.63;100.00;61273.97;5128100;27;20122;-65
2024/03/28 09:49:01;;;;;;;9.88;4.93;;;;;;;-145.63;100.00;61273.97;5115741;27;20084;-66
2024/03/28 09:51:28;;;;;;;11.00;4.55;;;;;;;-145.63;100.00;61273.97;5119061;28;20771;-67
2024/03/28 09:53:56;;;;;;;12.57;4.22;;;;;;;-145.63;100.00;61273.97;5132181;27;20023;-66
2024/03/28 09:56:23;;;;;;;10.52;4.90;;;;;;;-145.63;100.00;61273.97;5133855;27;20031;-66
2024/03/28 09:58:49;;;;;;;10.88;5.00;;;;;;;-145.63;100.00;61273.97;5109443;27;20031;-66
2024/03/28 10:01:15;;;;;;;13.75;4.93;;;;;;;-145.63;100.00;61273.97;5124919;27;20039;-66
2024/03/28 10:03:46;;;;;;;14.88;5.68;;;;;;;-145.63;100.00;61273.97;5125220;27;20043;-66
2024/03/28 10:06:12;;;;;;;11.57;5.20;;;;;;;-145.63;100.00;61273.97;5113120;28;20050;-65
2024/03/28 10:08:39;;;;;;;9.50;4.68;;;;;;;-145.63;100.00;61273.97;5113505;28;20487;-65
2024/03/28 10:11:06;;;;;;;10.63;5.18;;;;;;;-145.63;100.00;61273.97;5124608;27;20023;-66
2024/03/28 10:13:36;;;;;;;12.15;4.90;;;;;;;-145.63;100.00;61273.97;5127306;27;20030;-65
2024/03/28 10:16:04;;;;;;;10.95;4.82;;;;;;;-145.63;100.00;61273.97;5114352;27;20035;-65
2024/03/28 10:18:31;;;;;;;12.07;5.25;;;;;;;-145.63;100.00;61273.97;5131298;27;20485;-65
2024/03/28 10:20:57;;;;;;;11.93;4.22;;;;;;;-145.63;100.00;61273.97;5123580;27;20107;-65
2024/03/28 10:23:27;;;;;;;12.30;4.50;;;;;;;-145.63;100.00;61273.97;5127069;27;20161;-65
2024/03/28 10:25:53;;;;;;;10.85;4.03;;;;;;;-145.63;100.00;61273.97;5129385;27;20066;-65
2024/03/28 10:28:31;;;;;;;12.68;4.10;;;;;;;-145.63;100.00;61273.97;5127243;27;20032;-66
2024/03/28 10:31:00;;;;;;;11.98;3.97;;;;;;;-145.63;100.00;61273.97;5122600;27;20417;-65
2024/03/28 10:33:25;;;;;;;9.68;3.88;;;;;;;-145.63;100.00;61273.97;5116392;27;20031;-65
2024/03/28 10:36:02;;;;;;;8.90;3.78;;;;;;;-145.63;100.00;61273.97;5111516;27;20608;-65
2024/03/28 10:38:28;;;;;;;11.07;4.47;;;;;;;-145.63;100.00;61273.97;5120685;27;20093;-65
2024/03/28 10:40:55;;;;;;;6.18;3.55;;;;;;;-145.63;100.00;61273.97;5119797;27;20626;-65
2024/03/28 10:43:24;;;;;;;8.18;3.53;;;;;;;-145.63;100.00;61273.97;5114803;27;20356;-66
2024/03/28 10:45:52;;;;;;;12.77;4.35;;;;;;;-145.63;100.00;61273.97;5122773;27;20022;-65
2024/03/28 10:48:19;;;;;;;15.45;3.38;;;;;;;-145.63;100.00;61273.97;5132243;27;20152;-65
2024/03/28 10:51:03;;;;;;;9.80;3.58;;;;;;;-145.63;100.00;61273.97;5117183;27;20027;-66
2024/03/28 10:53:52;;;;;;;9.15;3.42;;;;;;;-145.63;100.00;61273.97;5114715;27;20031;-65
2024/03/28 10:56:19;;;;;;;7.57;3.40;;;;;;;-145.63;100.00;61273.97;5120161;27;20023;-65
2024/03/28 10:58:48;;;;;;;7.85;3.65;;;;;;;-145.63;100.00;61273.97;5113867;28;20031;-66
2024/03/28 11:01:14;;;;;;;4.95;3.30;;;;;;;-145.63;100.00;61273.97;5114127;27;20034;-65
2024/03/28 11:03:41;;;;;;;5.03;3.05;;;;;;;-145.63;100.00;61273.97;5113391;27;20051;-66
2024/03/28 11:06:08;;;;;;;8.05;3.50;;;;;;;-145.63;100.00;61273.97;5124484;27;20042;-64